createdAt,value
2018-09-03T00:01:22.142Z,21.86
2018-09-03T00:03:51.893Z,21.87
2018-09-03T00:06:21.325Z,21.79
2018-09-03T00:08:50.684Z,21.98
2018-09-03T00:11:20.043Z,22.00
2018-09-03T00:13:49.383Z,21.81
2018-09-03T00:16:18.755Z,21.74
2018-09-03T00:18:48.207Z,21.69
2018-09-03T00:21:17.683Z,21.73
2018-09-03T00:23:47.353Z,21.75
2018-09-03T00:26:16.703Z,21.68
2018-09-03T00:28:46.078Z,21.63
2018-09-03T00:31:20.782Z,21.57
2018-09-03T00:33:55.347Z,21.63
2018-09-03T00:36:29.938Z,21.72
2018-09-03T00:39:04.558Z,21.62
2018-09-03T00:41:44.975Z,21.56
2018-09-03T00:44:19.667Z,21.67
2018-09-03T00:46:54.260Z,21.52
2018-09-03T00:49:23.896Z,21.60
2018-09-03T00:51:53.331Z,21.54
2018-09-03T00:54:22.724Z,21.57
2018-09-03T00:56:52.128Z,21.52
2018-09-03T00:59:21.527Z,21.42
2018-09-03T01:01:51.042Z,21.39
2018-09-03T01:04:20.651Z,21.47
2018-09-03T01:06:50.167Z,21.51
2018-09-03T01:09:19.500Z,21.26
2018-09-03T01:11:48.862Z,21.32
2018-09-03T01:14:18.322Z,21.46
2018-09-03T01:16:47.743Z,21.37
2018-09-03T01:19:17.181Z,21.50
2018-09-03T01:21:46.583Z,21.41
2018-09-03T01:24:16.633Z,21.40
2018-09-03T01:26:46.030Z,21.32
2018-09-03T01:29:15.397Z,21.34
2018-09-03T01:31:45.026Z,21.34
2018-09-03T01:34:14.407Z,21.08
2018-09-03T01:36:43.783Z,21.12
2018-09-03T01:39:13.193Z,21.21
2018-09-03T01:41:42.619Z,21.08
2018-09-03T01:44:12.019Z,21.14
2018-09-03T01:46:41.446Z,21.15
2018-09-03T01:49:10.863Z,21.19
2018-09-03T01:51:40.287Z,21.14
2018-09-03T01:54:09.698Z,21.19
2018-09-03T01:56:39.066Z,21.20
2018-09-03T01:59:08.465Z,21.14
2018-09-03T02:01:37.822Z,21.13
2018-09-03T02:04:07.481Z,21.06
2018-09-03T02:06:36.818Z,20.93
2018-09-03T02:09:11.637Z,20.69
2018-09-03T02:11:41.934Z,20.73
2018-09-03T02:14:11.383Z,20.60
2018-09-03T02:16:40.780Z,20.81
2018-09-03T02:19:10.345Z,20.72
2018-09-03T02:21:39.644Z,20.91
2018-09-03T02:24:09.158Z,20.84
2018-09-03T02:26:38.487Z,20.62
2018-09-03T02:29:07.871Z,20.72
2018-09-03T02:31:37.662Z,20.54
2018-09-03T02:34:07.089Z,20.62
2018-09-03T02:36:36.536Z,20.76
2018-09-03T02:39:07.687Z,20.75
2018-09-03T02:41:37.786Z,20.76
2018-09-03T02:44:07.188Z,20.70
2018-09-03T02:46:36.612Z,20.57
2018-09-03T02:49:06.698Z,20.61
2018-09-03T02:51:36.103Z,20.63
2018-09-03T02:54:05.973Z,20.61
2018-09-03T02:56:35.396Z,20.74
2018-09-03T02:59:04.765Z,20.73
2018-09-03T03:01:34.370Z,20.71
2018-09-03T03:04:03.840Z,20.55
2018-09-03T03:06:33.186Z,20.50
2018-09-03T03:09:02.575Z,20.47
2018-09-03T03:11:31.918Z,20.56
2018-09-03T03:14:01.295Z,20.52
2018-09-03T03:16:31.010Z,20.44
2018-09-03T03:19:00.310Z,20.43
2018-09-03T03:21:29.694Z,20.47
2018-09-03T03:23:59.145Z,20.37
2018-09-03T03:26:28.573Z,20.46
2018-09-03T03:28:57.948Z,20.47
2018-09-03T03:31:27.421Z,20.41
2018-09-03T03:33:56.842Z,20.46
2018-09-03T03:36:26.296Z,20.56
2018-09-03T03:38:55.883Z,20.65
2018-09-03T03:41:25.533Z,20.49
2018-09-03T03:43:55.190Z,20.32
2018-09-03T03:46:24.599Z,20.43
2018-09-03T03:48:54.238Z,20.45
2018-09-03T03:51:23.906Z,20.49
2018-09-03T03:53:53.398Z,20.52
2018-09-03T03:56:22.735Z,20.55
2018-09-03T03:58:52.254Z,20.64
2018-09-03T04:01:22.013Z,20.67
2018-09-03T04:03:51.337Z,20.75
2018-09-03T04:06:20.704Z,20.68
2018-09-03T04:08:50.074Z,20.74
2018-09-03T04:11:19.468Z,20.77
2018-09-03T04:13:48.819Z,20.70
2018-09-03T04:16:18.279Z,20.68
2018-09-03T04:18:47.719Z,20.66
2018-09-03T04:21:17.397Z,20.75
2018-09-03T04:23:47.037Z,20.80
2018-09-03T04:26:16.458Z,20.79
2018-09-03T04:28:45.981Z,20.62
2018-09-03T04:31:15.268Z,20.72
2018-09-03T04:33:44.738Z,20.73
2018-09-03T04:36:14.287Z,20.68
2018-09-03T04:38:43.807Z,20.84
2018-09-03T04:41:13.145Z,20.79
2018-09-03T04:43:42.724Z,20.82
2018-09-03T04:46:12.413Z,20.83
2018-09-03T04:48:42.082Z,20.86
2018-09-03T04:51:11.550Z,20.98
2018-09-03T04:53:40.927Z,20.94
2018-09-03T04:56:10.261Z,21.01
2018-09-03T04:58:40.095Z,21.00
2018-09-03T05:01:09.569Z,21.02
2018-09-03T05:03:39.030Z,21.16
2018-09-03T05:06:08.466Z,21.06
2018-09-03T05:08:38.052Z,21.15
2018-09-03T05:11:07.342Z,21.14
2018-09-03T05:13:36.739Z,21.25
2018-09-03T05:16:06.438Z,21.30
2018-09-03T05:18:35.998Z,21.17
2018-09-03T05:21:05.433Z,21.27
2018-09-03T05:23:34.804Z,21.25
2018-09-03T05:26:04.725Z,21.39
2018-09-03T05:28:34.268Z,21.39
2018-09-03T05:31:03.879Z,21.62
2018-09-03T05:33:33.201Z,21.69
2018-09-03T05:36:02.544Z,21.62
2018-09-03T05:38:31.939Z,21.54
2018-09-03T05:41:01.302Z,21.58
2018-09-03T05:43:30.668Z,21.64
2018-09-03T05:46:00.068Z,21.74
2018-09-03T05:48:29.557Z,21.81
2018-09-03T05:50:58.974Z,21.88
2018-09-03T05:53:28.656Z,21.90
2018-09-03T05:55:58.136Z,21.97
2018-09-03T05:58:27.685Z,21.99
2018-09-03T06:00:57.140Z,22.04
2018-09-03T06:03:26.513Z,21.98
2018-09-03T06:05:55.964Z,22.00
2018-09-03T06:08:25.633Z,21.97
2018-09-03T06:10:55.031Z,22.14
2018-09-03T06:13:24.458Z,22.11
2018-09-03T06:15:54.066Z,22.22
2018-09-03T06:18:23.503Z,22.26
2018-09-03T06:20:52.902Z,22.45
2018-09-03T06:23:22.351Z,22.41
2018-09-03T06:25:51.703Z,22.62
2018-09-03T06:28:21.103Z,22.71
2018-09-03T06:30:50.524Z,22.80
2018-09-03T06:33:19.873Z,22.81
2018-09-03T06:35:49.297Z,22.77
2018-09-03T06:38:18.826Z,22.69
2018-09-03T06:40:48.287Z,22.66
2018-09-03T06:43:17.687Z,22.81
2018-09-03T06:45:47.130Z,22.87
2018-09-03T06:48:16.564Z,22.70
2018-09-03T06:50:46.053Z,22.84
2018-09-03T06:53:15.478Z,22.86
2018-09-03T06:55:45.007Z,23.01
2018-09-03T06:58:14.420Z,23.04
2018-09-03T07:00:44.303Z,23.02
2018-09-03T07:03:13.940Z,23.05
2018-09-03T07:05:43.478Z,23.00
2018-09-03T07:08:13.014Z,22.87
2018-09-03T07:10:42.446Z,22.62
2018-09-03T07:13:11.931Z,22.55
2018-09-03T07:15:41.296Z,22.64
2018-09-03T07:18:10.748Z,22.85
2018-09-03T07:20:40.181Z,23.00
2018-09-03T07:23:09.829Z,23.18
2018-09-03T07:25:39.258Z,23.42
2018-09-03T07:28:08.683Z,23.93
2018-09-03T07:30:38.175Z,24.39
2018-09-03T07:33:07.655Z,24.85
2018-09-03T07:35:37.342Z,25.30
2018-09-03T07:38:06.918Z,25.46
2018-09-03T07:40:36.349Z,25.82
2018-09-03T07:43:06.008Z,26.70
2018-09-03T07:45:35.731Z,26.97
2018-09-03T07:48:05.294Z,26.45
2018-09-03T07:50:34.717Z,26.61
2018-09-03T07:53:04.243Z,27.33
2018-09-03T07:55:33.800Z,27.17
2018-09-03T07:58:03.446Z,27.56
2018-09-03T08:00:33.038Z,27.26
2018-09-03T08:03:02.446Z,26.97
2018-09-03T08:05:31.824Z,26.68
2018-09-03T08:08:01.298Z,26.80
2018-09-03T08:10:30.823Z,27.20
2018-09-03T08:13:00.376Z,28.50
2018-09-03T08:15:29.874Z,29.60
2018-09-03T08:17:59.281Z,30.34
2018-09-03T08:20:28.775Z,31.43
2018-09-03T08:22:58.263Z,31.96
2018-09-03T08:25:27.596Z,31.68
2018-09-03T08:27:56.996Z,31.84
2018-09-03T08:30:26.959Z,32.20
2018-09-03T08:32:56.411Z,32.85
2018-09-03T08:35:25.848Z,32.24
2018-09-03T08:37:55.291Z,32.89
2018-09-03T08:40:24.718Z,33.28
2018-09-03T08:42:54.267Z,32.90
2018-09-03T08:45:23.705Z,31.46
2018-09-03T08:47:53.114Z,31.55
2018-09-03T08:50:22.654Z,32.42
2018-09-03T08:52:52.176Z,33.18
2018-09-03T08:55:21.528Z,33.89
2018-09-03T08:57:50.951Z,34.67
2018-09-03T09:00:20.425Z,34.91
2018-09-03T09:02:49.795Z,35.55
2018-09-03T09:05:19.360Z,35.98
2018-09-03T09:07:48.840Z,36.39
2018-09-03T09:10:18.373Z,36.57
2018-09-03T09:12:47.775Z,36.95
2018-09-03T09:15:17.261Z,37.88
2018-09-03T09:17:46.796Z,38.30
2018-09-03T09:20:16.169Z,39.25
2018-09-03T09:22:45.604Z,39.04
2018-09-03T09:25:15.044Z,37.39
2018-09-03T09:27:44.523Z,36.84
2018-09-03T09:30:14.039Z,36.88
2018-09-03T09:32:43.643Z,38.04
2018-09-03T09:35:13.107Z,38.89
2018-09-03T09:37:42.956Z,39.87
2018-09-03T09:40:12.763Z,40.34
2018-09-03T09:42:42.160Z,40.60
2018-09-03T09:45:12.040Z,41.33
2018-09-03T09:47:41.470Z,41.56
2018-09-03T09:50:10.859Z,42.12
2018-09-03T09:52:40.301Z,41.52
2018-09-03T09:55:09.688Z,40.43
2018-09-03T09:57:39.029Z,40.64
2018-09-03T10:00:10.923Z,41.48
2018-09-03T10:02:41.177Z,41.72
2018-09-03T10:05:10.615Z,41.40
2018-09-03T10:07:40.020Z,41.24
2018-09-03T10:10:09.421Z,41.71
2018-09-03T10:12:38.797Z,40.80
2018-09-03T10:15:08.371Z,41.22
2018-09-03T10:17:37.866Z,41.32
2018-09-03T10:20:07.772Z,42.17
2018-09-03T10:22:37.363Z,42.44
2018-09-03T10:25:06.784Z,42.72
2018-09-03T10:27:36.200Z,43.01
2018-09-03T10:30:05.985Z,42.44
2018-09-03T10:32:35.444Z,42.12
2018-09-03T10:35:04.788Z,41.96
2018-09-03T10:37:34.230Z,43.11
2018-09-03T10:40:03.574Z,43.85
2018-09-03T10:42:33.001Z,43.68
2018-09-03T10:45:02.514Z,44.45
2018-09-03T10:47:31.932Z,44.77
2018-09-03T10:50:01.290Z,44.18
2018-09-03T10:52:30.833Z,42.12
2018-09-03T10:55:00.269Z,41.94
2018-09-03T10:57:29.776Z,40.97
2018-09-03T10:59:59.300Z,40.63
2018-09-03T11:02:28.682Z,40.85
2018-09-03T11:04:58.036Z,42.18
2018-09-03T11:07:27.463Z,43.61
2018-09-03T11:09:57.013Z,43.75
2018-09-03T11:12:26.352Z,44.82
2018-09-03T11:14:55.887Z,44.69
2018-09-03T11:17:25.220Z,44.00
2018-09-03T11:19:57.927Z,43.17
2018-09-03T11:22:27.495Z,42.10
2018-09-03T11:24:57.786Z,42.75
2018-09-03T11:27:27.442Z,44.57
2018-09-03T11:29:56.931Z,44.18
2018-09-03T11:32:26.301Z,40.58
2018-09-03T11:34:55.702Z,38.93
2018-09-03T11:37:25.317Z,39.67
2018-09-03T11:39:54.886Z,38.93
2018-09-03T11:42:24.326Z,39.34
2018-09-03T11:44:53.861Z,37.98
2018-09-03T11:47:23.334Z,38.93
2018-09-03T11:49:53.349Z,37.67
2018-09-03T11:52:22.889Z,36.09
2018-09-03T11:54:52.280Z,36.48
2018-09-03T11:57:21.692Z,36.10
2018-09-03T11:59:51.115Z,36.39
2018-09-03T12:02:20.694Z,34.74
2018-09-03T12:04:50.148Z,36.45
2018-09-03T12:07:19.750Z,38.68
2018-09-03T12:09:49.257Z,40.83
2018-09-03T12:12:18.791Z,40.26
2018-09-03T12:14:50.819Z,39.83
2018-09-03T12:17:20.266Z,37.48
2018-09-03T12:19:49.699Z,35.61
2018-09-03T12:22:19.078Z,35.30
2018-09-03T12:24:48.563Z,36.02
2018-09-03T12:27:17.979Z,36.52
2018-09-03T12:29:47.375Z,36.95
2018-09-03T12:32:17.096Z,38.00
2018-09-03T12:34:46.459Z,38.56
2018-09-03T12:37:15.848Z,39.13
2018-09-03T12:39:45.230Z,39.54
2018-09-03T12:42:14.684Z,37.36
2018-09-03T12:44:44.031Z,36.15
2018-09-03T12:47:13.410Z,36.56
2018-09-03T12:49:42.815Z,35.85
2018-09-03T12:52:12.262Z,37.38
2018-09-03T12:54:42.131Z,38.46
2018-09-03T12:57:11.581Z,38.06
2018-09-03T12:59:41.080Z,37.55
2018-09-03T13:02:10.800Z,37.16
2018-09-03T13:04:40.169Z,38.23
2018-09-03T13:07:09.621Z,38.68
2018-09-03T13:09:39.223Z,37.43
2018-09-03T13:12:08.668Z,36.69
2018-09-03T13:14:38.275Z,35.91
2018-09-03T13:17:07.750Z,35.37
2018-09-03T13:19:37.252Z,34.83
2018-09-03T13:22:06.902Z,35.35
2018-09-03T13:24:36.405Z,36.24
2018-09-03T13:27:05.983Z,36.86
2018-09-03T13:29:35.548Z,37.03
2018-09-03T13:32:05.001Z,36.77
2018-09-03T13:34:34.494Z,36.03
2018-09-03T13:37:03.878Z,34.50
2018-09-03T13:39:33.590Z,34.07
2018-09-03T13:42:03.098Z,34.22
2018-09-03T13:44:32.788Z,34.45
2018-09-03T13:47:02.227Z,34.37
2018-09-03T13:49:31.669Z,34.10
2018-09-03T13:52:01.149Z,34.66
2018-09-03T13:54:30.620Z,34.92
2018-09-03T13:56:59.959Z,34.39
2018-09-03T13:59:29.321Z,34.52
2018-09-03T14:01:58.894Z,34.57
2018-09-03T14:04:28.326Z,34.19
2018-09-03T14:06:57.699Z,33.82
2018-09-03T14:09:27.156Z,34.01
2018-09-03T14:11:56.585Z,34.83
2018-09-03T14:14:26.339Z,34.67
2018-09-03T14:16:56.111Z,35.00
2018-09-03T14:19:25.668Z,34.76
2018-09-03T14:21:55.245Z,34.82
2018-09-03T14:24:24.727Z,34.34
2018-09-03T14:26:54.154Z,33.95
2018-09-03T14:29:23.606Z,34.39
2018-09-03T14:31:53.091Z,34.32
2018-09-03T14:34:22.619Z,33.98
2018-09-03T14:36:52.169Z,33.88
2018-09-03T14:39:21.629Z,33.84
2018-09-03T14:41:51.974Z,33.59
2018-09-03T14:44:21.483Z,33.82
2018-09-03T14:46:51.625Z,34.13
2018-09-03T14:49:21.104Z,34.25
2018-09-03T14:51:50.777Z,33.79
2018-09-03T14:54:20.391Z,33.49
2018-09-03T14:56:50.012Z,33.46
2018-09-03T14:59:19.831Z,33.48
2018-09-03T15:01:49.779Z,33.37
2018-09-03T15:04:19.439Z,33.21
2018-09-03T15:06:48.903Z,32.85
2018-09-03T15:09:18.419Z,32.71
2018-09-03T15:11:47.814Z,32.66
2018-09-03T15:14:17.419Z,32.83
2018-09-03T15:16:46.872Z,32.76
2018-09-03T15:19:16.389Z,32.81
2018-09-03T15:21:45.757Z,32.73
2018-09-03T15:24:15.447Z,32.69
2018-09-03T15:26:44.911Z,32.59
2018-09-03T15:29:14.369Z,31.67
2018-09-03T15:31:44.063Z,31.65
2018-09-03T15:34:13.608Z,32.11
2018-09-03T15:36:43.413Z,32.19
2018-09-03T15:39:13.451Z,32.21
2018-09-03T15:41:43.167Z,32.05
2018-09-03T15:44:12.639Z,31.85
2018-09-03T15:46:42.097Z,32.05
2018-09-03T15:49:11.905Z,31.93
2018-09-03T15:51:41.466Z,31.59
2018-09-03T15:54:11.558Z,31.72
2018-09-03T15:56:41.079Z,31.65
2018-09-03T15:59:10.644Z,31.33
2018-09-03T16:01:40.205Z,31.73
2018-09-03T16:04:10.575Z,31.76
2018-09-03T16:06:40.059Z,31.69
2018-09-03T16:09:11.239Z,31.74
2018-09-03T16:11:40.691Z,31.80
2018-09-03T16:14:10.516Z,31.73
2018-09-03T16:16:40.008Z,31.80
2018-09-03T16:19:09.716Z,31.64
2018-09-03T16:21:39.173Z,31.30
2018-09-03T16:24:08.859Z,31.09
2018-09-03T16:26:38.301Z,31.20
2018-09-03T16:29:08.017Z,31.32
2018-09-03T16:31:37.622Z,30.99
2018-09-03T16:34:07.062Z,31.12
2018-09-03T16:36:36.406Z,31.21
2018-09-03T16:39:07.134Z,31.09
2018-09-03T16:41:36.653Z,30.87
2018-09-03T16:44:06.069Z,30.93
2018-09-03T16:46:35.494Z,30.51
2018-09-03T16:49:05.027Z,30.58
2018-09-03T16:51:34.858Z,30.27
2018-09-03T16:54:04.304Z,30.25
2018-09-03T16:56:33.756Z,30.25
2018-09-03T16:59:03.174Z,30.01
2018-09-03T17:01:33.964Z,30.06
2018-09-03T17:04:03.437Z,29.83
2018-09-03T17:06:33.208Z,29.93
2018-09-03T17:09:02.702Z,29.87
2018-09-03T17:11:32.380Z,29.52
2018-09-03T17:14:02.077Z,29.63
2018-09-03T17:16:31.611Z,29.42
2018-09-03T17:19:01.118Z,29.36
2018-09-03T17:21:30.806Z,29.57
2018-09-03T17:24:00.611Z,29.67
2018-09-03T17:26:30.086Z,29.60
2018-09-03T17:28:59.511Z,29.55
2018-09-03T17:31:29.003Z,29.54
2018-09-03T17:33:58.635Z,29.16
2018-09-03T17:36:28.292Z,29.12
2018-09-03T17:38:58.003Z,29.00
2018-09-03T17:41:27.975Z,29.01
2018-09-03T17:43:57.626Z,29.06
2018-09-03T17:46:27.259Z,28.99
2018-09-03T17:48:56.672Z,28.74
2018-09-03T17:51:26.044Z,28.46
2018-09-03T17:53:55.459Z,28.76
2018-09-03T17:56:24.910Z,28.56
2018-09-03T17:58:54.287Z,28.52
2018-09-03T18:01:23.802Z,28.44
2018-09-03T18:03:53.207Z,28.48
2018-09-03T18:06:22.582Z,28.35
2018-09-03T18:08:52.401Z,28.11
2018-09-03T18:11:21.854Z,27.99
2018-09-03T18:13:51.696Z,27.87
2018-09-03T18:16:21.408Z,27.89
2018-09-03T18:18:51.587Z,27.90
2018-09-03T18:21:21.588Z,27.98
2018-09-03T18:23:51.084Z,27.82
2018-09-03T18:26:20.614Z,27.86
2018-09-03T18:28:50.381Z,27.86
2018-09-03T18:31:19.820Z,27.78
2018-09-03T18:33:49.332Z,27.69
2018-09-03T18:36:18.915Z,27.58
2018-09-03T18:38:48.421Z,27.60
2018-09-03T18:41:17.835Z,27.52
2018-09-03T18:43:47.214Z,27.33
2018-09-03T18:46:16.577Z,27.39
2018-09-03T18:48:45.978Z,27.30
2018-09-03T18:51:15.483Z,27.38
2018-09-03T18:53:44.858Z,27.38
2018-09-03T18:56:14.392Z,27.11
2018-09-03T18:58:43.932Z,27.16
2018-09-03T19:01:13.457Z,26.94
2018-09-03T19:03:43.111Z,26.93
2018-09-03T19:06:12.659Z,26.71
2018-09-03T19:08:42.133Z,26.84
2018-09-03T19:11:11.712Z,26.74
2018-09-03T19:13:41.495Z,26.26
2018-09-03T19:16:11.082Z,26.56
2018-09-03T19:18:40.534Z,26.49
2018-09-03T19:21:10.619Z,26.60
2018-09-03T19:23:39.920Z,26.26
2018-09-03T19:26:09.380Z,26.37
2018-09-03T19:28:38.915Z,26.44
2018-09-03T19:31:08.476Z,26.46
2018-09-03T19:33:38.097Z,26.21
2018-09-03T19:36:08.147Z,26.27
2018-09-03T19:38:38.099Z,26.21
2018-09-03T19:41:07.682Z,26.15
2018-09-03T19:43:37.633Z,25.83
2018-09-03T19:46:07.134Z,25.70
2018-09-03T19:48:36.828Z,25.61
2018-09-03T19:51:06.971Z,25.49
2018-09-03T19:53:36.425Z,25.33
2018-09-03T19:56:06.102Z,25.54
2018-09-03T19:58:35.803Z,25.55
2018-09-03T20:01:05.526Z,25.39
2018-09-03T20:03:35.335Z,25.51
2018-09-03T20:06:05.232Z,25.45
2018-09-03T20:08:34.870Z,25.56
2018-09-03T20:11:04.399Z,25.61
2018-09-03T20:13:33.888Z,25.54
2018-09-03T20:16:03.496Z,25.37
2018-09-03T20:18:33.567Z,24.98
2018-09-03T20:21:03.602Z,24.88
2018-09-03T20:23:33.009Z,24.87
2018-09-03T20:26:02.305Z,24.84
2018-09-03T20:28:31.702Z,24.90
2018-09-03T20:31:01.346Z,24.98
2018-09-03T20:33:30.622Z,24.85
2018-09-03T20:36:00.186Z,24.95
2018-09-03T20:38:29.554Z,24.95
2018-09-03T20:40:58.981Z,24.75
2018-09-03T20:43:28.718Z,24.80
2018-09-03T20:45:58.183Z,24.85
2018-09-03T20:48:27.521Z,24.92
2018-09-03T20:50:57.117Z,24.59
2018-09-03T20:53:26.446Z,24.64
2018-09-03T20:55:55.814Z,24.58
2018-09-03T20:58:25.256Z,24.69
2018-09-03T21:00:54.654Z,24.56
2018-09-03T21:03:24.177Z,24.42
2018-09-03T21:05:53.911Z,24.38
2018-09-03T21:08:23.989Z,24.22
2018-09-03T21:10:53.590Z,24.45
2018-09-03T21:13:23.344Z,24.21
2018-09-03T21:15:52.922Z,24.38
2018-09-03T21:18:22.385Z,24.21
2018-09-03T21:20:51.921Z,24.36
2018-09-03T21:23:21.545Z,24.28
2018-09-03T21:25:50.987Z,24.30
2018-09-03T21:28:21.199Z,24.28
2018-09-03T21:30:51.446Z,24.23
2018-09-03T21:33:20.831Z,24.14
2018-09-03T21:35:50.267Z,24.05
2018-09-03T21:38:19.688Z,24.16
2018-09-03T21:40:49.232Z,24.15
2018-09-03T21:43:18.640Z,24.02
2018-09-03T21:45:48.119Z,24.01
2018-09-03T21:48:17.959Z,24.02
2018-09-03T21:50:47.567Z,23.80
2018-09-03T21:53:17.589Z,23.71
2018-09-03T21:55:46.939Z,23.72
2018-09-03T21:58:16.317Z,23.80
2018-09-03T22:00:45.886Z,23.88
2018-09-03T22:03:15.298Z,23.77
2018-09-03T22:05:44.745Z,23.71
2018-09-03T22:08:15.034Z,23.64
2018-09-03T22:10:44.503Z,23.59
2018-09-03T22:13:14.641Z,23.46
2018-09-03T22:15:44.128Z,23.41
2018-09-03T22:18:13.563Z,23.29
2018-09-03T22:20:42.973Z,23.53
2018-09-03T22:23:12.356Z,23.51
2018-09-03T22:28:10.286Z,23.42
2018-09-03T22:30:39.618Z,23.25
2018-09-03T22:33:08.997Z,23.25
2018-09-03T22:35:38.454Z,23.30
2018-09-03T22:38:07.884Z,23.24
2018-09-03T22:40:37.273Z,23.19
2018-09-03T22:43:06.882Z,23.20
2018-09-03T22:45:36.244Z,23.14
2018-09-03T22:48:05.807Z,23.06
2018-09-03T22:50:35.566Z,22.96
2018-09-03T22:53:05.173Z,22.93
2018-09-03T22:55:34.679Z,22.77
2018-09-03T22:58:04.320Z,22.75
2018-09-03T23:00:33.938Z,22.61
2018-09-03T23:03:03.531Z,22.61
2018-09-03T23:05:32.973Z,22.53
2018-09-03T23:08:02.324Z,22.57
2018-09-03T23:10:31.714Z,22.50
2018-09-03T23:13:01.253Z,22.47
2018-09-03T23:15:30.934Z,22.29
2018-09-03T23:18:00.581Z,22.10
2018-09-03T23:20:30.064Z,22.12
2018-09-03T23:22:59.595Z,22.14
2018-09-03T23:25:28.928Z,22.28
2018-09-03T23:27:58.356Z,22.32
2018-09-03T23:30:27.833Z,22.10
2018-09-03T23:32:57.288Z,22.22
2018-09-03T23:35:26.641Z,22.26
2018-09-03T23:37:56.071Z,22.09
2018-09-03T23:40:25.649Z,22.12
2018-09-03T23:42:55.272Z,22.11
2018-09-03T23:45:24.785Z,22.05
2018-09-03T23:47:54.164Z,21.97
2018-09-03T23:50:23.545Z,21.96
2018-09-03T23:52:53.079Z,21.97
2018-09-03T23:55:23.027Z,22.07
2018-09-03T23:57:52.393Z,21.90
